Time;durP1;ratioP1;P1;durP2;ratioP2;P2;SDS_P1;SDS_P2;PMS_P1;PMS_P2;Temp;Humidity;BMP_temperature;BMP_pressure;BME280_temperature;BME280_humidity;BME280_pressure;Samples;Min_cycle;Max_cycle;Signal;HPM_P1;HPM_P2
2022/10/21 00:00:16;;;;;;;8.52;3.05;;;21.90;59.10;;;;;;5064849;28;20043;-39
2022/10/21 00:02:42;;;;;;;7.10;2.55;;;21.90;59.10;;;;;;5067060;28;20044;-43
2022/10/21 00:05:09;;;;;;;6.65;1.98;;;22.00;58.70;;;;;;5067326;28;20070;-44
2022/10/21 00:07:35;;;;;;;7.18;2.33;;;22.00;59.10;;;;;;5048744;28;20045;-48
2022/10/21 00:10:01;;;;;;;6.45;2.28;;;22.10;59.20;;;;;;5060106;28;20036;-47
2022/10/21 00:12:28;;;;;;;5.27;1.67;;;22.10;59.10;;;;;;5065768;28;20143;-44
2022/10/21 00:14:54;;;;;;;4.65;1.50;;;22.10;59.10;;;;;;5063522;28;20199;-41
2022/10/21 00:17:20;;;;;;;2.83;1.10;;;22.20;59.20;;;;;;5065098;28;20041;-49
2022/10/21 00:19:46;;;;;;;4.68;1.50;;;22.30;59.20;;;;;;5065812;28;20100;-42
2022/10/21 00:22:12;;;;;;;2.78;1.20;;;22.30;58.90;;;;;;5060990;28;20024;-44
2022/10/21 00:24:38;;;;;;;2.78;1.13;;;22.40;58.60;;;;;;5063746;28;20033;-44
2022/10/21 00:27:05;;;;;;;2.20;1.20;;;22.40;58.70;;;;;;5065220;28;20121;-43
2022/10/21 00:29:31;;;;;;;2.28;1.27;;;22.50;58.60;;;;;;5061529;28;20765;-42
2022/10/21 00:31:57;;;;;;;1.58;1.13;;;22.60;58.40;;;;;;5064956;28;20051;-43
2022/10/21 00:34:23;;;;;;;1.33;0.90;;;22.60;58.50;;;;;;5097026;28;20024;-44
2022/10/21 00:36:49;;;;;;;1.73;1.05;;;22.70;58.10;;;;;;5097357;28;20039;-44
2022/10/21 00:39:15;;;;;;;1.20;0.90;;;22.80;58.20;;;;;;5097261;28;20048;-43
2022/10/21 00:41:41;;;;;;;1.50;1.00;;;22.80;58.00;;;;;;5096788;28;20032;-44
2022/10/21 00:44:11;;;;;;;3.80;1.00;;;22.90;58.00;;;;;;5097206;28;20092;-41
2022/10/21 00:46:40;;;;;;;0.85;0.73;;;23.00;57.50;;;;;;5096417;28;20035;-40
2022/10/21 00:49:12;;;;;;;2.10;0.85;;;23.10;56.80;;;;;;5095825;28;20032;-41
2022/10/21 00:51:39;;;;;;;1.30;0.70;;;23.20;56.50;;;;;;5095996;28;20056;-41
2022/10/21 00:54:05;;;;;;;1.15;1.00;;;23.30;56.40;;;;;;5096437;28;20039;-40
2022/10/21 00:56:31;;;;;;;1.20;0.90;;;23.30;56.00;;;;;;5094883;28;20028;-38
2022/10/21 00:58:58;;;;;;;1.13;0.80;;;23.40;55.70;;;;;;5103986;28;20034;-39
2022/10/21 01:01:24;;;;;;;0.70;0.60;;;23.40;55.80;;;;;;5101945;28;20023;-39
2022/10/21 01:03:50;;;;;;;1.45;0.85;;;23.40;55.60;;;;;;5093549;28;20040;-37
2022/10/21 01:06:19;;;;;;;2.55;0.80;;;23.40;55.70;;;;;;5107135;28;20012;-37
2022/10/21 01:08:45;;;;;;;1.85;0.90;;;23.50;55.70;;;;;;5104158;28;20067;-39
2022/10/21 01:11:13;;;;;;;0.85;0.65;;;23.50;55.70;;;;;;5136661;27;20023;-39
2022/10/21 01:14:16;;;;;;;3.42;0.70;;;23.60;55.60;;;;;;5102463;28;20079;-43
2022/10/21 01:17:02;;;;;;;2.80;0.63;;;23.60;55.40;;;;;;5101243;28;20036;-37
2022/10/21 01:20:10;;;;;;;1.17;0.60;;;23.60;55.60;;;;;;5102677;28;20099;-38
2022/10/21 01:22:55;;;;;;;0.57;0.52;;;23.60;55.30;;;;;;5102635;28;20028;-38
2022/10/21 01:25:45;;;;;;;0.90;0.60;;;23.60;56.00;;;;;;5103016;28;20020;-37
2022/10/21 01:28:41;;;;;;;0.60;0.52;;;23.50;55.20;;;;;;5097100;28;20044;-38
2022/10/21 01:31:31;;;;;;;1.23;0.60;;;23.50;55.30;;;;;;5092771;28;20040;-38
2022/10/21 01:34:27;;;;;;;1.08;0.70;;;23.40;55.30;;;;;;5091246;28;20028;-38
2022/10/21 01:37:06;;;;;;;0.70;0.60;;;23.40;55.10;;;;;;5090136;28;20766;-38
2022/10/21 01:39:42;;;;;;;1.60;0.60;;;23.40;55.00;;;;;;5088758;28;20039;-37
2022/10/21 01:42:42;;;;;;;1.25;0.80;;;23.40;55.10;;;;;;5090553;28;20032;-38
2022/10/21 01:45:13;;;;;;;1.05;0.65;;;23.40;54.80;;;;;;5107791;27;20035;-38
2022/10/21 01:47:42;;;;;;;0.95;0.85;;;23.40;54.60;;;;;;5091398;28;20054;-37
2022/10/21 01:50:16;;;;;;;1.17;0.80;;;23.40;54.70;;;;;;5088935;28;20054;-38
2022/10/21 01:52:44;;;;;;;1.10;0.80;;;23.30;54.70;;;;;;5105590;27;20128;-39
2022/10/21 01:55:13;;;;;;;0.80;0.60;;;23.30;54.60;;;;;;5088319;28;21382;-38
2022/10/21 01:57:42;;;;;;;0.98;0.70;;;23.30;54.70;;;;;;5090788;28;20062;-38
2022/10/21 02:00:08;;;;;;;1.10;0.93;;;23.20;54.80;;;;;;5126802;27;20040;-39
2022/10/21 02:02:37;;;;;;;1.10;0.80;;;23.20;54.80;;;;;;5129084;27;20420;-45
2022/10/21 02:05:16;;;;;;;1.00;0.63;;;23.20;54.70;;;;;;5094735;28;20032;-38
2022/10/21 02:07:42;;;;;;;1.13;0.70;;;23.20;54.80;;;;;;5096277;28;20024;-38
2022/10/21 02:10:08;;;;;;;1.20;0.80;;;23.20;55.00;;;;;;5102287;28;20032;-45
2022/10/21 02:12:35;;;;;;;0.90;0.57;;;23.20;54.60;;;;;;5091714;28;20044;-52
2022/10/21 02:15:01;;;;;;;0.73;0.60;;;23.10;54.70;;;;;;5124740;27;20556;-37
2022/10/21 02:17:27;;;;;;;3.47;0.60;;;23.10;54.90;;;;;;5100133;28;20083;-36
2022/10/21 02:20:12;;;;;;;0.50;0.50;;;23.00;55.00;;;;;;5104411;28;20292;-36
2022/10/21 02:23:19;;;;;;;1.00;0.57;;;23.00;55.00;;;;;;5095423;28;20020;-35
2022/10/21 02:25:45;;;;;;;0.80;0.60;;;22.90;55.20;;;;;;5094981;28;20032;-35
2022/10/21 02:28:11;;;;;;;1.95;0.60;;;22.90;54.90;;;;;;5078661;28;20036;-35
2022/10/21 02:30:53;;;;;;;0.60;0.40;;;22.80;55.00;;;;;;5096121;28;20066;-36
2022/10/21 02:33:22;;;;;;;0.80;0.60;;;22.80;55.10;;;;;;5093984;28;20031;-35
2022/10/21 02:35:59;;;;;;;1.25;0.68;;;22.70;55.10;;;;;;5091343;28;20612;-35
2022/10/21 02:38:32;;;;;;;0.60;0.60;;;22.70;54.90;;;;;;5090433;28;20544;-38
2022/10/21 02:41:03;;;;;;;0.65;0.50;;;22.60;55.10;;;;;;5112136;28;20031;-33
2022/10/21 02:43:44;;;;;;;0.70;0.68;;;22.60;55.00;;;;;;5094963;28;20032;-34
2022/10/21 02:46:11;;;;;;;1.58;0.77;;;22.60;54.90;;;;;;5111541;28;20055;-35
2022/10/21 02:48:38;;;;;;;1.15;0.60;;;22.60;55.20;;;;;;5093015;28;20038;-36
2022/10/21 02:51:05;;;;;;;0.90;0.70;;;22.60;55.20;;;;;;5093073;28;20122;-34
2022/10/21 02:53:32;;;;;;;1.17;0.75;;;22.50;55.60;;;;;;5092926;28;20040;-35
2022/10/21 02:55:58;;;;;;;0.63;0.50;;;22.50;55.10;;;;;;5095543;28;20496;-37
2022/10/21 02:58:24;;;;;;;0.80;0.50;;;22.50;55.20;;;;;;5100373;28;20284;-39
2022/10/21 03:00:50;;;;;;;1.50;0.65;;;22.40;55.30;;;;;;5101862;28;20560;-37
2022/10/21 03:03:16;;;;;;;1.05;0.63;;;22.40;54.90;;;;;;5091374;28;20028;-35
2022/10/21 03:05:42;;;;;;;0.98;0.57;;;22.40;55.20;;;;;;5103815;28;20056;-37
2022/10/21 03:08:08;;;;;;;1.63;0.82;;;22.40;55.30;;;;;;5108321;28;20131;-35
2022/10/21 03:10:35;;;;;;;2.28;0.70;;;22.30;55.60;;;;;;5106263;28;20031;-38
2022/10/21 03:13:01;;;;;;;1.23;0.50;;;22.30;55.70;;;;;;5101384;28;20059;-38
2022/10/21 03:15:27;;;;;;;0.60;0.47;;;22.30;55.50;;;;;;5090055;28;20032;-36
2022/10/21 03:17:53;;;;;;;0.88;0.65;;;22.30;55.40;;;;;;5103342;28;20049;-35
2022/10/21 03:20:19;;;;;;;1.02;0.80;;;22.20;55.40;;;;;;5094281;28;20031;-36
2022/10/21 03:22:45;;;;;;;0.85;0.70;;;22.20;55.30;;;;;;5116576;28;20030;-36
2022/10/21 03:25:11;;;;;;;0.80;0.50;;;22.20;55.50;;;;;;5099496;28;20035;-36
2022/10/21 03:27:37;;;;;;;1.10;0.77;;;22.20;55.40;;;;;;5098687;28;20046;-35
2022/10/21 03:30:04;;;;;;;1.15;0.65;;;22.10;55.20;;;;;;5104060;28;20028;-43
2022/10/21 03:32:31;;;;;;;1.48;0.88;;;22.10;55.40;;;;;;5105574;28;20024;-35
2022/10/21 03:34:57;;;;;;;1.10;0.75;;;22.10;55.30;;;;;;5088795;28;20040;-35
2022/10/21 03:37:23;;;;;;;1.02;0.70;;;22.00;55.40;;;;;;5105073;28;20043;-34
2022/10/21 03:39:49;;;;;;;0.85;0.60;;;22.00;55.20;;;;;;5108891;28;20110;-39
2022/10/21 03:42:15;;;;;;;1.23;0.77;;;22.00;55.30;;;;;;5099504;28;20028;-42
2022/10/21 03:44:41;;;;;;;1.10;0.70;;;21.90;55.50;;;;;;5137056;27;20091;-37
2022/10/21 03:47:07;;;;;;;0.80;0.60;;;21.90;55.30;;;;;;5103388;28;20033;-36
2022/10/21 03:49:33;;;;;;;0.75;0.70;;;21.90;55.50;;;;;;5105447;28;20039;-39
2022/10/21 03:52:00;;;;;;;1.00;0.65;;;21.80;55.40;;;;;;5104139;28;20039;-37
2022/10/21 03:54:26;;;;;;;1.10;0.60;;;21.80;55.70;;;;;;5103492;28;20020;-37
2022/10/21 03:56:52;;;;;;;0.90;0.65;;;21.80;55.60;;;;;;5106051;28;20032;-37
2022/10/21 03:59:18;;;;;;;1.05;0.68;;;21.70;55.70;;;;;;5104180;28;20052;-37
2022/10/21 04:01:44;;;;;;;0.82;0.60;;;21.70;55.90;;;;;;5106647;28;20100;-41
2022/10/21 04:04:10;;;;;;;0.70;0.60;;;21.70;56.00;;;;;;5095977;28;20031;-37
2022/10/21 04:06:36;;;;;;;0.70;0.60;;;21.60;56.10;;;;;;5097432;28;20032;-37
2022/10/21 04:09:03;;;;;;;1.02;0.70;;;21.60;56.20;;;;;;5097535;28;20039;-37
2022/10/21 04:11:29;;;;;;;1.27;0.68;;;21.50;56.20;;;;;;5096527;28;20032;-37
2022/10/21 04:13:55;;;;;;;1.10;0.90;;;21.50;56.20;;;;;;5096547;28;20052;-37
2022/10/21 04:16:21;;;;;;;1.40;0.73;;;21.50;56.30;;;;;;5096225;28;20032;-39
2022/10/21 04:18:47;;;;;;;0.65;0.60;;;21.50;56.30;;;;;;5096969;28;20027;-39
2022/10/21 04:21:14;;;;;;;0.70;0.60;;;21.40;56.40;;;;;;5095620;28;20029;-38
2022/10/21 04:23:40;;;;;;;0.80;0.60;;;21.30;56.50;;;;;;5096379;28;20087;-38
2022/10/21 04:26:06;;;;;;;1.08;0.80;;;21.30;56.60;;;;;;5096532;28;20115;-39
2022/10/21 04:28:32;;;;;;;0.70;0.60;;;21.30;56.60;;;;;;5092996;28;20086;-39
2022/10/21 04:30:58;;;;;;;1.23;0.90;;;21.30;56.80;;;;;;5091596;28;20028;-41
2022/10/21 04:33:25;;;;;;;1.15;0.73;;;21.30;56.70;;;;;;5093888;28;20067;-44
2022/10/21 04:35:53;;;;;;;0.80;0.70;;;21.30;56.90;;;;;;5097282;28;20032;-45
2022/10/21 04:38:19;;;;;;;0.95;0.77;;;21.20;56.80;;;;;;5096658;28;20044;-44
2022/10/21 04:40:45;;;;;;;0.60;0.60;;;21.20;56.70;;;;;;5096748;28;20024;-46
2022/10/21 04:43:11;;;;;;;1.00;0.77;;;21.20;56.70;;;;;;5096328;28;21070;-42
2022/10/21 04:45:38;;;;;;;1.33;0.85;;;21.20;56.70;;;;;;5095726;28;20066;-43
2022/10/21 04:48:05;;;;;;;;;;;21.10;56.80;;;;;;5098080;28;20047;-45
2022/10/21 04:50:33;;;;;;;0.95;0.60;;;21.10;56.60;;;;;;5095364;28;19916;-39
2022/10/21 04:52:59;;;;;;;0.90;0.70;;;21.10;56.80;;;;;;5096004;28;20066;-40
2022/10/21 04:55:26;;;;;;;0.63;0.57;;;21.00;56.80;;;;;;5097228;28;20024;-40
2022/10/21 04:57:52;;;;;;;1.08;0.80;;;21.00;56.80;;;;;;5099281;28;20477;-42
2022/10/21 05:00:18;;;;;;;1.20;0.90;;;20.90;56.90;;;;;;5108125;28;20043;-39
2022/10/21 05:02:44;;;;;;;1.55;0.60;;;20.90;56.90;;;;;;5107590;28;20059;-43
2022/10/21 05:05:10;;;;;;;1.08;0.80;;;20.90;56.90;;;;;;5099669;28;20035;-40
2022/10/21 05:07:36;;;;;;;1.20;0.80;;;20.90;56.80;;;;;;5092480;28;20119;-43
2022/10/21 05:10:03;;;;;;;0.80;0.52;;;20.80;56.60;;;;;;5104238;28;20019;-42
2022/10/21 05:12:29;;;;;;;1.00;0.80;;;20.90;56.70;;;;;;5102412;28;20047;-43
2022/10/21 05:14:55;;;;;;;0.80;0.70;;;20.80;56.90;;;;;;5095894;28;20094;-40
2022/10/21 05:17:21;;;;;;;1.10;0.70;;;20.80;57.10;;;;;;5099029;28;20032;-41
2022/10/21 05:19:47;;;;;;;1.88;0.90;;;20.70;56.90;;;;;;5096032;28;20024;-43
2022/10/21 05:22:32;;;;;;;1.00;0.80;;;20.70;57.20;;;;;;5101544;28;20093;-41
2022/10/21 05:24:58;;;;;;;0.88;0.75;;;20.70;57.10;;;;;;5096840;28;20032;-42
2022/10/21 05:27:24;;;;;;;0.93;0.70;;;20.60;57.50;;;;;;5097103;28;20028;-44
2022/10/21 05:29:50;;;;;;;0.75;0.65;;;20.60;57.50;;;;;;5102304;28;20028;-43
2022/10/21 05:32:16;;;;;;;1.25;0.75;;;20.60;57.60;;;;;;5098812;28;20023;-42
2022/10/21 05:34:42;;;;;;;0.82;0.60;;;20.60;57.50;;;;;;5102781;28;20385;-49
2022/10/21 05:37:09;;;;;;;1.48;0.60;;;20.50;57.30;;;;;;5125751;27;20036;-44
2022/10/21 05:39:35;;;;;;;1.58;0.70;;;20.50;57.20;;;;;;5105419;28;20050;-44
2022/10/21 05:42:01;;;;;;;1.23;1.00;;;20.50;57.60;;;;;;5105945;28;20036;-44
2022/10/21 05:44:27;;;;;;;1.05;0.70;;;20.50;57.90;;;;;;5098804;28;20028;-44
2022/10/21 05:46:53;;;;;;;1.20;0.80;;;20.40;57.50;;;;;;5089035;28;20051;-45
2022/10/21 05:49:19;;;;;;;1.60;0.90;;;20.40;57.40;;;;;;5102329;28;20039;-43
2022/10/21 05:51:45;;;;;;;1.30;0.75;;;20.30;57.60;;;;;;5111865;28;20024;-44
2022/10/21 05:54:11;;;;;;;1.15;0.68;;;20.30;57.60;;;;;;5100714;28;20109;-38
2022/10/21 05:56:37;;;;;;;1.67;0.90;;;20.30;57.70;;;;;;5102972;28;20028;-38
2022/10/21 05:59:03;;;;;;;1.20;0.80;;;20.30;57.70;;;;;;5089279;28;20079;-38
2022/10/21 06:01:29;;;;;;;1.02;0.90;;;20.20;57.40;;;;;;5095621;28;20078;-38
2022/10/21 06:03:55;;;;;;;1.08;0.82;;;20.20;57.40;;;;;;5090091;28;20024;-38
2022/10/21 06:06:22;;;;;;;0.98;0.68;;;20.20;57.40;;;;;;5114182;28;20039;-39
2022/10/21 06:08:48;;;;;;;1.40;0.90;;;20.20;57.60;;;;;;5101526;28;20039;-37
2022/10/21 06:11:15;;;;;;;0.82;0.77;;;20.10;57.40;;;;;;5117369;28;20027;-37
2022/10/21 06:13:41;;;;;;;;;;;20.10;58.30;;;;;;5107398;28;20063;-37
2022/10/21 06:16:07;;;;;;;0.95;0.70;;;20.10;58.20;;;;;;5114874;28;19908;-38
2022/10/21 06:18:34;;;;;;;2.08;0.85;;;20.00;57.80;;;;;;5109410;28;20023;-38
2022/10/21 06:21:00;;;;;;;1.80;1.03;;;20.00;57.60;;;;;;5097019;28;20451;-38
2022/10/21 06:23:26;;;;;;;0.80;0.68;;;20.00;58.20;;;;;;5107892;28;20061;-40
2022/10/21 06:25:56;;;;;;;1.77;0.80;;;20.00;57.80;;;;;;5117853;28;20092;-40
2022/10/21 06:28:22;;;;;;;1.00;0.80;;;19.90;57.90;;;;;;5095941;28;20163;-40
2022/10/21 06:30:48;;;;;;;0.82;0.73;;;19.90;57.90;;;;;;5103752;28;20032;-39
2022/10/21 06:33:14;;;;;;;1.08;0.80;;;19.90;57.90;;;;;;5099576;28;20097;-40
2022/10/21 06:35:40;;;;;;;2.22;0.77;;;19.80;57.60;;;;;;5097736;28;20052;-40
2022/10/21 06:38:06;;;;;;;0.88;0.70;;;19.80;57.90;;;;;;5093937;28;20080;-39
2022/10/21 06:40:32;;;;;;;1.40;0.85;;;19.80;57.80;;;;;;5104790;28;20023;-39
2022/10/21 06:42:59;;;;;;;1.50;0.80;;;19.80;57.80;;;;;;5106173;28;20796;-39
2022/10/21 06:45:25;;;;;;;1.30;0.70;;;19.70;57.80;;;;;;5088433;28;20024;-38
2022/10/21 06:47:51;;;;;;;1.80;0.70;;;19.70;57.70;;;;;;5106925;28;20050;-39
2022/10/21 06:50:17;;;;;;;1.48;0.70;;;19.70;58.20;;;;;;5087265;28;20791;-38
2022/10/21 06:52:43;;;;;;;3.25;0.98;;;19.60;57.60;;;;;;5102914;28;20054;-38
2022/10/21 06:55:10;;;;;;;0.90;0.87;;;19.60;57.10;;;;;;5103903;28;20031;-38
2022/10/21 06:57:36;;;;;;;1.00;0.70;;;19.60;56.70;;;;;;5099628;28;20054;-36
2022/10/21 07:00:03;;;;;;;2.72;0.80;;;19.60;56.60;;;;;;5111578;28;20020;-36
2022/10/21 07:02:29;;;;;;;1.10;0.80;;;19.50;56.50;;;;;;5104188;28;20054;-37
2022/10/21 07:04:56;;;;;;;0.90;0.80;;;19.50;56.50;;;;;;5105330;28;20024;-37
2022/10/21 07:07:23;;;;;;;1.25;0.88;;;19.50;56.50;;;;;;5105823;28;20044;-37
2022/10/21 07:09:49;;;;;;;1.23;0.82;;;19.50;56.50;;;;;;5096575;28;20038;-36
2022/10/21 07:12:15;;;;;;;1.40;0.80;;;19.50;56.50;;;;;;5105903;28;20054;-36
2022/10/21 07:15:01;;;;;;;1.00;0.77;;;19.40;56.50;;;;;;5102898;28;20043;-37
2022/10/21 07:17:30;;;;;;;1.20;0.65;;;19.40;56.60;;;;;;5083499;28;20050;-37
2022/10/21 07:19:56;;;;;;;0.90;0.70;;;19.40;56.60;;;;;;5083008;28;20587;-37
2022/10/21 07:22:23;;;;;;;1.52;0.93;;;19.40;56.60;;;;;;5082102;28;20035;-37
2022/10/21 07:24:49;;;;;;;0.77;0.73;;;19.30;56.60;;;;;;5081710;28;20284;-37
2022/10/21 07:27:15;;;;;;;1.40;0.98;;;19.30;56.70;;;;;;5084921;28;20044;-37
2022/10/21 07:29:41;;;;;;;0.98;0.77;;;19.20;56.70;;;;;;5079593;28;20063;-38
2022/10/21 07:32:07;;;;;;;2.22;0.90;;;19.20;56.80;;;;;;5078036;28;20028;-39
2022/10/21 07:34:33;;;;;;;1.27;0.95;;;19.20;56.90;;;;;;5083142;28;20070;-39
2022/10/21 07:36:59;;;;;;;1.48;0.98;;;19.20;57.10;;;;;;5081897;28;20087;-38
2022/10/21 07:39:25;;;;;;;1.08;0.75;;;19.20;57.10;;;;;;5082679;28;20043;-38
2022/10/21 07:41:53;;;;;;;1.30;0.82;;;19.10;57.10;;;;;;5084024;28;20044;-38
2022/10/21 07:44:20;;;;;;;0.82;0.70;;;19.10;57.30;;;;;;5082429;28;20091;-38
2022/10/21 07:46:47;;;;;;;2.85;1.00;;;19.10;57.50;;;;;;5080766;28;20037;-40
2022/10/21 07:49:13;;;;;;;0.97;0.73;;;19.00;57.50;;;;;;5081452;28;20076;-42
2022/10/21 07:51:39;;;;;;;1.38;0.70;;;19.00;57.70;;;;;;5080765;28;20391;-39
2022/10/21 07:54:06;;;;;;;1.00;0.80;;;19.00;58.00;;;;;;5091740;28;20594;-39
2022/10/21 07:56:34;;;;;;;1.10;0.77;;;18.90;57.70;;;;;;5102341;28;20053;-38
2022/10/21 07:59:00;;;;;;;1.90;0.95;;;18.90;58.00;;;;;;5101711;28;20036;-40
2022/10/21 08:01:27;;;;;;;1.20;0.80;;;18.90;57.90;;;;;;5103246;28;20043;-38
2022/10/21 08:03:53;;;;;;;1.00;0.60;;;18.90;58.00;;;;;;5105012;28;20032;-38
2022/10/21 08:06:20;;;;;;;1.00;0.80;;;18.90;58.00;;;;;;5105978;28;20031;-38
2022/10/21 08:08:46;;;;;;;2.38;0.73;;;18.80;57.90;;;;;;5106027;28;20043;-38
2022/10/21 08:11:19;;;;;;;2.55;1.00;;;18.80;57.70;;;;;;5103029;28;20017;-38
2022/10/21 08:13:45;;;;;;;1.45;0.73;;;18.80;57.60;;;;;;5098230;28;20058;-38
2022/10/21 08:16:11;;;;;;;2.40;1.08;;;18.70;57.40;;;;;;5110334;28;20040;-35
2022/10/21 08:18:37;;;;;;;2.45;1.10;;;18.70;57.60;;;;;;5093701;28;20712;-35
2022/10/21 08:21:03;;;;;;;11.02;1.92;;;18.70;58.00;;;;;;5103418;28;20063;-35
2022/10/21 08:23:30;;;;;;;4.78;1.80;;;18.70;57.80;;;;;;5102708;28;20115;-35
2022/10/21 08:25:57;;;;;;;14.55;2.00;;;18.70;57.90;;;;;;5103649;28;20032;-34
2022/10/21 08:28:24;;;;;;;;;;;18.70;58.20;;;;;;5105707;28;20040;-36
2022/10/21 08:30:50;;;;;;;3.53;1.48;;;18.70;58.10;;;;;;5104084;28;19951;-37
2022/10/21 08:33:16;;;;;;;7.28;1.65;;;18.60;58.30;;;;;;5101636;28;20107;-36
2022/10/21 08:35:42;;;;;;;4.32;1.70;;;18.60;58.30;;;;;;5100160;28;20478;-36
2022/10/21 08:38:08;;;;;;;6.40;1.85;;;18.60;58.20;;;;;;5093671;28;20028;-37
2022/10/21 08:40:45;;;;;;;8.10;2.00;;;18.50;57.90;;;;;;5099507;28;20028;-36
2022/10/21 08:43:19;;;;;;;5.35;1.77;;;18.50;57.90;;;;;;5088291;28;20069;-37
2022/10/21 08:46:10;;;;;;;5.38;1.75;;;18.50;57.80;;;;;;5093445;28;20031;-36
2022/10/21 08:48:42;;;;;;;2.63;1.50;;;18.40;57.90;;;;;;5099998;28;20036;-36
2022/10/21 08:51:12;;;;;;;3.47;1.80;;;18.40;57.50;;;;;;5112021;27;20036;-37
2022/10/21 08:53:40;;;;;;;3.47;1.83;;;18.30;57.50;;;;;;5085364;28;20020;-36
2022/10/21 08:56:11;;;;;;;4.78;1.88;;;18.30;57.30;;;;;;5118364;27;20480;-36
2022/10/21 08:58:37;;;;;;;3.55;1.77;;;18.20;57.50;;;;;;5119126;28;20035;-37
2022/10/21 09:01:23;;;;;;;2.38;1.70;;;18.20;57.30;;;;;;5092400;28;20036;-37
2022/10/21 09:03:57;;;;;;;3.50;1.90;;;18.20;56.90;;;;;;5127274;27;20016;-37
2022/10/21 09:06:51;;;;;;;3.65;1.90;;;18.10;57.00;;;;;;5103228;28;20028;-36
2022/10/21 09:09:36;;;;;;;4.03;2.17;;;18.10;56.80;;;;;;5102964;28;20059;-36
2022/10/21 09:12:24;;;;;;;2.35;1.73;;;18.10;56.90;;;;;;5103480;28;20035;-38
2022/10/21 09:15:03;;;;;;;2.92;1.85;;;18.00;56.80;;;;;;5100363;28;20046;-39
2022/10/21 09:17:38;;;;;;;3.03;1.77;;;18.00;56.90;;;;;;5129891;27;20060;-38
2022/10/21 09:20:16;;;;;;;2.97;2.00;;;18.00;56.70;;;;;;5111783;28;20028;-38
2022/10/21 09:23:12;;;;;;;3.00;2.05;;;17.90;57.00;;;;;;5101947;28;20028;-39
2022/10/21 09:25:45;;;;;;;3.22;2.03;;;18.00;57.20;;;;;;5101006;28;20062;-38
2022/10/21 09:28:13;;;;;;;2.15;1.75;;;18.00;57.30;;;;;;5102645;28;20044;-39
2022/10/21 09:30:40;;;;;;;2.55;2.00;;;18.10;57.40;;;;;;5098411;28;20028;-36
2022/10/21 09:33:30;;;;;;;2.22;1.70;;;18.20;57.50;;;;;;5094647;28;20032;-36
2022/10/21 09:36:29;;;;;;;2.65;1.88;;;18.20;57.80;;;;;;5129226;27;20082;-36
2022/10/21 09:38:57;;;;;;;2.00;1.50;;;18.30;57.90;;;;;;5101815;28;20038;-36
2022/10/21 09:41:25;;;;;;;2.88;2.00;;;18.30;57.80;;;;;;5106018;28;20479;-36
2022/10/21 09:43:51;;;;;;;2.50;1.83;;;18.30;57.80;;;;;;5136316;27;20035;-36
2022/10/21 09:46:17;;;;;;;2.80;1.70;;;18.30;57.90;;;;;;5096029;28;20041;-35
2022/10/21 09:48:50;;;;;;;2.33;1.55;;;18.40;58.10;;;;;;5095671;28;20040;-36
2022/10/21 09:51:23;;;;;;;1.50;1.40;;;18.50;58.20;;;;;;5094103;28;20430;-36
2022/10/21 09:53:56;;;;;;;1.75;1.50;;;18.50;58.40;;;;;;5127565;27;20017;-36
2022/10/21 09:56:28;;;;;;;2.28;1.70;;;18.60;58.40;;;;;;5128386;27;20040;-36
2022/10/21 09:59:15;;;;;;;2.50;1.48;;;18.60;58.50;;;;;;5093828;28;20031;-36
2022/10/21 10:01:41;;;;;;;2.33;1.55;;;18.70;58.20;;;;;;5100019;28;20789;-37
2022/10/21 10:04:20;;;;;;;2.17;1.60;;;18.70;58.20;;;;;;5121413;27;20044;-36
2022/10/21 10:06:46;;;;;;;2.17;1.73;;;18.70;58.20;;;;;;5108806;28;20096;-36
2022/10/21 10:09:26;;;;;;;2.17;1.70;;;18.80;58.40;;;;;;5102983;28;20064;-36
2022/10/21 10:11:59;;;;;;;1.95;1.40;;;18.80;58.30;;;;;;5098055;28;20036;-42
2022/10/21 10:14:37;;;;;;;2.08;1.48;;;18.90;58.40;;;;;;5095808;28;20059;-38
2022/10/21 10:17:22;;;;;;;2.05;1.45;;;19.00;58.50;;;;;;5100321;28;20035;-37
2022/10/21 10:20:04;;;;;;;2.33;1.60;;;19.00;58.00;;;;;;5102686;28;20601;-39
2022/10/21 10:22:31;;;;;;;1.90;1.33;;;19.00;58.00;;;;;;5095735;28;20036;-41
2022/10/21 10:25:21;;;;;;;2.97;1.67;;;19.00;57.80;;;;;;5086834;28;20028;-43
2022/10/21 10:28:09;;;;;;;2.85;1.50;;;19.10;58.10;;;;;;5098284;28;20637;-43
2022/10/21 10:30:41;;;;;;;4.75;1.10;;;19.10;58.10;;;;;;5100148;28;20039;-43
2022/10/21 10:33:30;;;;;;;2.13;1.63;;;19.20;58.50;;;;;;5100506;28;20027;-42
2022/10/21 10:35:57;;;;;;;2.95;1.40;;;19.30;58.20;;;;;;5097507;28;20087;-39
2022/10/21 10:38:34;;;;;;;10.18;2.47;;;19.40;58.00;;;;;;5108691;28;20024;-38
2022/10/21 10:41:06;;;;;;;10.50;3.73;;;19.50;58.10;;;;;;5134327;28;20020;-35
2022/10/21 10:43:33;;;;;;;18.40;3.65;;;19.60;58.30;;;;;;5093519;28;20025;-37
2022/10/21 10:46:06;;;;;;;18.23;3.90;;;19.70;58.50;;;;;;5123198;28;20039;-41
2022/10/21 10:48:41;;;;;;;13.95;3.90;;;19.80;58.80;;;;;;5120741;28;20035;-40
2022/10/21 10:51:24;;;;;;;16.27;5.63;;;19.90;58.30;;;;;;5103279;28;20076;-40
2022/10/21 10:54:06;;;;;;;30.35;5.22;;;19.90;58.20;;;;;;5102115;28;20133;-40
2022/10/21 10:56:37;;;;;;;11.95;3.67;;;20.00;57.90;;;;;;5092340;28;20096;-40
2022/10/21 10:59:09;;;;;;;12.23;3.72;;;20.10;57.80;;;;;;5103113;28;20036;-39
2022/10/21 11:01:42;;;;;;;10.63;3.25;;;20.20;57.80;;;;;;5101706;28;20024;-40
2022/10/21 11:04:43;;;;;;;7.35;3.60;;;20.20;57.40;;;;;;5114425;28;20029;-39
2022/10/21 11:07:28;;;;;;;5.55;2.58;;;20.30;57.40;;;;;;5065670;28;20143;-40
2022/10/21 11:10:06;;;;;;;5.20;2.70;;;20.30;57.20;;;;;;5082574;28;20100;-40
2022/10/21 11:12:32;;;;;;;4.80;2.67;;;20.40;57.20;;;;;;5081935;28;20067;-40
2022/10/21 11:14:59;;;;;;;3.58;2.08;;;20.50;57.20;;;;;;5082545;28;20017;-39
2022/10/21 11:17:36;;;;;;;4.60;2.38;;;20.50;57.00;;;;;;5082426;28;20029;-39
2022/10/21 11:20:11;;;;;;;3.50;2.33;;;20.60;56.80;;;;;;5082608;28;20028;-39
2022/10/21 11:23:02;;;;;;;3.35;2.10;;;20.70;56.90;;;;;;5090475;28;20477;-40
2022/10/21 11:25:53;;;;;;;2.65;2.03;;;20.70;56.60;;;;;;5105129;28;20591;-39
2022/10/21 11:28:41;;;;;;;3.70;1.92;;;20.80;56.60;;;;;;5085935;28;20040;-39
2022/10/21 11:31:31;;;;;;;2.33;1.65;;;20.90;56.60;;;;;;5102673;28;20031;-39
2022/10/21 11:34:13;;;;;;;2.58;1.77;;;20.90;56.50;;;;;;5088176;28;20025;-40
2022/10/21 11:36:44;;;;;;;2.90;2.00;;;21.00;56.50;;;;;;5084712;28;20029;-40
2022/10/21 11:39:38;;;;;;;3.05;2.20;;;21.00;56.30;;;;;;5084734;28;20036;-40
2022/10/21 11:42:22;;;;;;;2.25;1.80;;;21.10;56.30;;;;;;5084285;28;20058;-40
2022/10/21 11:45:09;;;;;;;2.35;1.63;;;21.20;56.20;;;;;;5085543;28;20028;-40
2022/10/21 11:47:52;;;;;;;2.25;1.80;;;21.20;56.00;;;;;;5085696;28;20032;-40
2022/10/21 11:50:47;;;;;;;2.25;1.70;;;21.30;56.00;;;;;;5085600;28;20024;-39
2022/10/21 11:53:13;;;;;;;2.05;1.55;;;21.40;55.90;;;;;;5098454;28;20035;-39
2022/10/21 11:56:06;;;;;;;2.28;1.58;;;21.40;55.70;;;;;;5105817;28;20576;-39
2022/10/21 11:58:32;;;;;;;2.13;1.80;;;21.50;55.80;;;;;;5088738;28;20028;-39
2022/10/21 12:01:39;;;;;;;2.70;1.70;;;21.50;55.70;;;;;;5085606;28;20380;-40
2022/10/21 12:04:08;;;;;;;2.22;1.65;;;21.60;55.40;;;;;;5102590;28;20071;-39
2022/10/21 12:06:49;;;;;;;1.70;1.50;;;21.60;55.50;;;;;;5105539;28;20027;-40
2022/10/21 12:09:53;;;;;;;1.95;1.48;;;21.70;55.30;;;;;;5136562;27;20066;-39
2022/10/21 12:12:47;;;;;;;2.60;1.70;;;21.70;55.20;;;;;;5101338;28;20043;-39
2022/10/21 12:15:26;;;;;;;2.60;1.85;;;21.80;54.90;;;;;;5103970;28;20040;-40
2022/10/21 12:17:52;;;;;;;2.60;1.73;;;21.80;54.60;;;;;;5119659;28;20028;-39
2022/10/21 12:20:25;;;;;;;2.30;1.73;;;21.80;54.40;;;;;;5105336;28;20024;-40
2022/10/21 12:22:54;;;;;;;2.45;1.67;;;21.80;54.30;;;;;;5105523;28;20488;-40
2022/10/21 12:25:48;;;;;;;2.72;1.88;;;21.80;54.00;;;;;;5121235;27;20043;-39
2022/10/21 12:28:32;;;;;;;2.40;1.70;;;21.80;53.70;;;;;;5082804;28;20045;-40
2022/10/21 12:31:01;;;;;;;3.45;2.08;;;21.80;53.80;;;;;;5084865;28;20052;-39
2022/10/21 12:33:46;;;;;;;2.50;2.00;;;21.80;53.50;;;;;;5130167;27;20046;-40
2022/10/21 12:36:23;;;;;;;3.25;2.13;;;21.80;53.50;;;;;;5082592;28;20063;-39
2022/10/21 12:38:55;;;;;;;3.45;2.03;;;21.80;53.40;;;;;;5116605;28;20024;-40
2022/10/21 12:41:33;;;;;;;3.35;2.13;;;21.70;53.10;;;;;;5084373;28;20051;-40
2022/10/21 12:44:02;;;;;;;2.67;1.85;;;21.70;53.00;;;;;;5116546;28;20024;-40
2022/10/21 12:46:41;;;;;;;2.42;2.20;;;21.70;52.80;;;;;;5084697;28;20025;-40
2022/10/21 12:49:24;;;;;;;2.95;2.03;;;21.70;52.70;;;;;;5117149;28;20040;-40
2022/10/21 12:52:05;;;;;;;2.35;1.98;;;21.70;52.70;;;;;;5117197;28;20044;-39
2022/10/21 12:54:37;;;;;;;5.65;2.38;;;21.60;52.70;;;;;;5116414;28;20077;-39
2022/10/21 12:57:11;;;;;;;3.53;2.30;;;21.60;52.50;;;;;;5095123;28;20028;-41
2022/10/21 12:59:39;;;;;;;2.97;2.20;;;21.60;52.50;;;;;;5084383;28;20084;-40
2022/10/21 13:02:05;;;;;;;2.88;1.98;;;21.50;52.40;;;;;;5084880;28;20112;-42
2022/10/21 13:04:31;;;;;;;2.60;2.30;;;21.50;52.40;;;;;;5104326;28;20031;-41
2022/10/21 13:07:03;;;;;;;3.75;2.30;;;21.50;52.40;;;;;;5104364;28;20043;-41
2022/10/21 13:09:39;;;;;;;2.97;2.25;;;21.50;52.30;;;;;;5104316;28;20058;-38